createdAt,value
2018-07-09T00:01:23.254Z,23.40
2018-07-09T00:03:52.573Z,23.50
2018-07-09T00:06:20.937Z,23.40
2018-07-09T00:08:56.654Z,23.30
2018-07-09T00:11:27.774Z,23.30
2018-07-09T00:13:56.968Z,23.20
2018-07-09T00:16:25.225Z,23.20
2018-07-09T00:19:05.712Z,23.10
2018-07-09T00:21:46.557Z,23.00
2018-07-09T00:24:14.786Z,23.00
2018-07-09T00:26:54.976Z,22.90
2018-07-09T00:29:23.235Z,22.90
2018-07-09T00:31:51.464Z,22.90
2018-07-09T00:34:19.673Z,22.80
2018-07-09T00:36:47.876Z,22.80
2018-07-09T00:39:28.331Z,22.80
2018-07-09T00:42:08.815Z,22.70
2018-07-09T00:44:49.580Z,22.70
2018-07-09T00:47:30.489Z,22.70
2018-07-09T00:50:11.340Z,22.40
2018-07-09T00:52:51.908Z,22.30
2018-07-09T00:55:32.597Z,22.10
2018-07-09T00:58:13.218Z,22.10
2018-07-09T01:00:53.784Z,22.00
2018-07-09T01:03:34.528Z,22.00
2018-07-09T01:06:15.213Z,22.00
2018-07-09T01:08:44.812Z,22.10
2018-07-09T01:11:25.890Z,22.10
2018-07-09T01:13:54.216Z,22.10
2018-07-09T01:16:35.215Z,22.10
2018-07-09T01:19:15.835Z,22.10
2018-07-09T01:21:56.482Z,22.10
2018-07-09T01:24:37.109Z,22.00
2018-07-09T01:27:17.892Z,22.00
2018-07-09T01:29:46.122Z,21.90
2018-07-09T01:32:27.245Z,21.90
2018-07-09T01:35:08.968Z,22.00
2018-07-09T01:37:49.979Z,21.90
2018-07-09T01:40:30.527Z,22.00
2018-07-09T01:43:11.111Z,21.90
2018-07-09T01:45:51.733Z,21.90
2018-07-09T01:48:19.971Z,22.00
2018-07-09T01:51:00.441Z,21.90
2018-07-09T01:53:28.759Z,21.80
2018-07-09T01:55:56.924Z,21.80
2018-07-09T01:58:37.617Z,21.70
2018-07-09T02:01:18.162Z,21.60
2018-07-09T02:03:58.753Z,21.70
2018-07-09T02:06:39.590Z,21.70
2018-07-09T02:09:20.251Z,21.70
2018-07-09T02:11:49.373Z,21.80
2018-07-09T02:14:18.120Z,21.80
2018-07-09T02:16:59.267Z,21.70
2018-07-09T02:19:39.992Z,21.60
2018-07-09T02:22:08.555Z,21.60
2018-07-09T02:24:49.457Z,21.60
2018-07-09T02:27:22.046Z,21.40
2018-07-09T02:30:03.280Z,21.40
2018-07-09T02:32:44.244Z,21.30
2018-07-09T02:35:24.390Z,21.20
2018-07-09T02:37:57.033Z,21.20
2018-07-09T02:40:26.781Z,21.10
2018-07-09T02:43:07.885Z,21.10
2018-07-09T02:45:36.573Z,21.00
2018-07-09T02:48:17.533Z,21.10
2018-07-09T02:50:57.893Z,21.10
2018-07-09T02:53:39.994Z,21.10
2018-07-09T02:56:21.214Z,21.10
2018-07-09T02:59:01.855Z,20.90
2018-07-09T03:01:30.460Z,20.90
2018-07-09T03:03:59.691Z,20.90
2018-07-09T03:06:28.402Z,20.80
2018-07-09T03:08:56.816Z,20.80
2018-07-09T03:11:37.833Z,20.60
2018-07-09T03:14:18.515Z,20.60
2018-07-09T03:16:49.810Z,20.50
2018-07-09T03:19:30.885Z,20.50
2018-07-09T03:22:11.775Z,20.40
2018-07-09T03:24:52.310Z,20.40
2018-07-09T03:27:33.527Z,20.40
2018-07-09T03:30:15.680Z,20.40
2018-07-09T03:32:44.032Z,20.40
2018-07-09T03:35:12.300Z,20.40
2018-07-09T03:37:53.141Z,20.30
2018-07-09T03:40:33.715Z,20.30
2018-07-09T03:43:03.777Z,20.30
2018-07-09T03:45:44.472Z,20.40
2018-07-09T03:48:26.241Z,20.30
2018-07-09T03:51:07.503Z,20.30
2018-07-09T03:53:49.026Z,20.20
2018-07-09T03:56:23.263Z,20.20
2018-07-09T03:59:05.033Z,20.10
2018-07-09T04:01:33.784Z,20.10
2018-07-09T04:04:14.816Z,20.10
2018-07-09T04:06:56.102Z,20.10
2018-07-09T04:09:37.216Z,19.90
2018-07-09T04:12:18.168Z,19.90
2018-07-09T04:14:58.914Z,20.10
2018-07-09T04:17:40.460Z,20.10
2018-07-09T04:20:21.880Z,20.20
2018-07-09T04:23:02.835Z,20.10
2018-07-09T04:25:44.544Z,20.00
2018-07-09T04:28:26.030Z,19.90
2018-07-09T04:31:07.232Z,19.60
2018-07-09T04:33:48.402Z,19.60
2018-07-09T04:36:29.337Z,19.80
2018-07-09T04:39:10.237Z,19.80
2018-07-09T04:41:38.441Z,19.80
2018-07-09T04:44:19.089Z,19.80
2018-07-09T04:46:47.292Z,19.80
2018-07-09T04:49:15.470Z,19.80
2018-07-09T04:51:43.717Z,19.70
2018-07-09T04:54:24.338Z,19.60
2018-07-09T04:57:05.045Z,19.50
2018-07-09T04:59:45.751Z,19.50
2018-07-09T05:02:26.448Z,19.50
2018-07-09T05:04:54.617Z,19.50
2018-07-09T05:07:35.032Z,19.50
2018-07-09T05:10:15.630Z,19.50
2018-07-09T05:12:43.900Z,19.60
2018-07-09T05:15:25.708Z,19.90
2018-07-09T05:18:06.254Z,20.10
2018-07-09T05:20:47.347Z,20.00
2018-07-09T05:23:28.070Z,19.80
2018-07-09T05:26:08.703Z,19.70
2018-07-09T05:28:36.893Z,19.70
2018-07-09T05:31:17.096Z,19.60
2018-07-09T05:33:57.781Z,19.60
2018-07-09T05:36:38.652Z,19.50
2018-07-09T05:39:19.251Z,19.40
2018-07-09T05:42:00.261Z,19.40
2018-07-09T05:44:28.653Z,19.40
2018-07-09T05:46:56.883Z,19.40
2018-07-09T05:49:37.530Z,19.60
2018-07-09T05:52:06.043Z,19.60
2018-07-09T05:54:46.153Z,19.50
2018-07-09T05:57:15.211Z,19.60
2018-07-09T05:59:55.538Z,19.70
2018-07-09T06:02:36.141Z,19.70
2018-07-09T06:05:16.685Z,19.60
2018-07-09T06:07:44.924Z,19.50
2018-07-09T06:10:13.218Z,19.60
2018-07-09T06:12:53.936Z,19.70
2018-07-09T06:15:34.506Z,19.80
2018-07-09T06:18:02.718Z,19.70
2018-07-09T06:20:43.024Z,19.80
2018-07-09T06:23:11.409Z,19.80
2018-07-09T06:25:51.532Z,19.70
2018-07-09T06:28:32.124Z,19.50
2018-07-09T06:31:00.415Z,19.50
2018-07-09T06:33:40.780Z,19.40
2018-07-09T06:36:21.381Z,19.50
2018-07-09T06:39:01.957Z,19.60
2018-07-09T06:41:42.638Z,19.60
2018-07-09T06:44:18.183Z,19.70
2018-07-09T06:46:58.447Z,19.70
2018-07-09T06:49:39.090Z,19.70
2018-07-09T06:52:19.530Z,19.70
2018-07-09T06:54:47.760Z,19.80
2018-07-09T06:57:16.969Z,19.90
2018-07-09T06:59:45.889Z,19.90
2018-07-09T07:02:15.933Z,19.80
2018-07-09T07:04:44.327Z,20.00
2018-07-09T07:07:13.022Z,20.00
2018-07-09T07:09:41.535Z,20.00
2018-07-09T07:12:22.261Z,20.00
2018-07-09T07:14:50.620Z,19.80
2018-07-09T07:17:31.605Z,19.90
2018-07-09T07:20:00.109Z,19.80
2018-07-09T07:22:40.205Z,19.80
2018-07-09T07:25:09.172Z,19.90
2018-07-09T07:27:40.628Z,19.90
2018-07-09T07:30:21.147Z,19.90
2018-07-09T07:33:01.560Z,19.90
2018-07-09T07:35:42.066Z,19.90
2018-07-09T07:38:10.290Z,20.00
2018-07-09T07:40:50.528Z,20.00
2018-07-09T07:43:31.339Z,20.00
2018-07-09T07:46:12.831Z,20.10
2018-07-09T07:48:41.094Z,20.20
2018-07-09T07:51:21.554Z,20.30
2018-07-09T07:54:02.473Z,20.50
2018-07-09T07:56:37.947Z,20.40
2018-07-09T07:59:06.289Z,20.30
2018-07-09T08:01:35.919Z,20.30
2018-07-09T08:04:17.134Z,20.30
2018-07-09T08:06:45.481Z,20.20
2018-07-09T08:09:16.082Z,20.20
2018-07-09T08:12:59.663Z,20.40
2018-07-09T08:14:27.023Z,20.60
2018-07-09T08:17:02.118Z,20.70
2018-07-09T08:19:36.842Z,20.80
2018-07-09T08:22:05.592Z,21.00
2018-07-09T08:24:33.873Z,21.10
2018-07-09T08:27:13.627Z,21.00
2018-07-09T08:29:53.969Z,21.10
2018-07-09T08:32:25.233Z,21.10
2018-07-09T08:34:53.701Z,21.00
2018-07-09T08:37:22.894Z,21.10
2018-07-09T08:40:03.837Z,21.30
2018-07-09T08:42:32.078Z,21.30
2018-07-09T08:45:13.585Z,21.40
2018-07-09T08:47:54.142Z,21.40
2018-07-09T08:50:34.839Z,21.50
2018-07-09T08:53:09.321Z,21.50
2018-07-09T08:55:37.510Z,21.60
2018-07-09T08:58:06.330Z,21.80
2018-07-09T09:00:34.713Z,21.80
2018-07-09T09:03:14.901Z,21.90
2018-07-09T09:05:44.333Z,22.00
2018-07-09T09:08:24.680Z,22.10
2018-07-09T09:11:05.114Z,22.20
2018-07-09T09:13:33.467Z,22.10
2018-07-09T09:16:01.802Z,22.30
2018-07-09T09:18:35.852Z,22.20
2018-07-09T09:21:15.976Z,22.20
2018-07-09T09:23:45.257Z,22.30
2018-07-09T09:26:25.491Z,22.30
2018-07-09T09:28:54.149Z,22.60
2018-07-09T09:31:22.511Z,22.80
2018-07-09T09:33:50.673Z,22.70
2018-07-09T09:36:19.176Z,23.00
2018-07-09T09:38:48.007Z,23.30
2018-07-09T09:41:21.972Z,23.20
2018-07-09T09:43:50.245Z,23.00
2018-07-09T09:46:18.512Z,23.20
2018-07-09T09:48:59.673Z,23.20
2018-07-09T09:51:31.533Z,23.20
2018-07-09T09:54:12.280Z,23.00
2018-07-09T09:56:40.527Z,23.00
2018-07-09T09:59:08.842Z,22.90
2018-07-09T10:01:49.513Z,23.00
2018-07-09T10:04:30.634Z,22.90
2018-07-09T10:06:58.957Z,23.00
2018-07-09T10:09:27.169Z,23.00
2018-07-09T10:12:07.462Z,22.80
2018-07-09T10:14:35.736Z,22.60
2018-07-09T10:17:05.479Z,22.60
2018-07-09T10:19:33.789Z,22.80
2018-07-09T10:22:02.075Z,22.70
2018-07-09T10:24:42.329Z,22.70
2018-07-09T10:27:22.922Z,22.70
2018-07-09T10:29:51.121Z,22.70
2018-07-09T10:32:19.362Z,22.60
2018-07-09T10:34:59.638Z,22.70
2018-07-09T10:37:40.214Z,22.90
2018-07-09T10:40:20.945Z,23.00
2018-07-09T10:43:03.953Z,23.10
2018-07-09T10:45:44.720Z,23.50
2018-07-09T10:48:25.814Z,24.00
2018-07-09T10:51:06.348Z,24.70
2018-07-09T10:53:46.991Z,25.20
2018-07-09T10:56:16.745Z,25.30
2018-07-09T10:58:57.814Z,25.60
2018-07-09T11:01:39.054Z,25.90
2018-07-09T11:04:20.105Z,26.10
2018-07-09T11:07:00.869Z,25.90
2018-07-09T11:09:41.235Z,26.30
2018-07-09T11:12:21.958Z,27.50
2018-07-09T11:14:51.385Z,29.50
2018-07-09T11:17:32.588Z,31.40
2018-07-09T11:20:01.359Z,32.70
2018-07-09T11:22:29.726Z,33.40
2018-07-09T11:25:09.994Z,32.00
2018-07-09T11:27:38.379Z,31.30
2018-07-09T11:30:06.783Z,31.40
2018-07-09T11:32:35.020Z,32.40
2018-07-09T11:35:15.382Z,33.70
2018-07-09T11:37:43.652Z,32.90
2018-07-09T11:40:11.941Z,31.60
2018-07-09T11:42:40.186Z,30.20
2018-07-09T11:45:08.416Z,29.30
2018-07-09T11:47:36.645Z,28.80
2018-07-09T11:50:17.060Z,27.80
2018-07-09T11:52:47.432Z,27.30
2018-07-09T11:55:27.638Z,26.30
2018-07-09T11:57:55.893Z,26.00
2018-07-09T12:00:24.130Z,25.60
2018-07-09T12:02:52.409Z,25.70
2018-07-09T12:05:21.155Z,25.90
2018-07-09T12:07:49.949Z,25.90
2018-07-09T12:10:18.223Z,26.30
2018-07-09T12:12:46.878Z,26.80
2018-07-09T12:15:15.128Z,27.30
2018-07-09T12:17:56.021Z,27.30
2018-07-09T12:20:36.651Z,27.90
2018-07-09T12:23:17.265Z,27.30
2018-07-09T12:25:57.905Z,27.20
2018-07-09T12:28:38.739Z,26.80
2018-07-09T12:31:19.202Z,26.40
2018-07-09T12:33:59.775Z,25.90
2018-07-09T12:36:28.107Z,25.40
2018-07-09T12:38:56.345Z,25.00
2018-07-09T12:41:37.219Z,24.80
2018-07-09T12:44:05.496Z,24.60
2018-07-09T12:46:33.933Z,24.50
2018-07-09T12:49:03.853Z,24.00
2018-07-09T12:51:32.502Z,24.00
2018-07-09T12:54:06.471Z,24.10
2018-07-09T12:56:38.322Z,24.30
2018-07-09T12:59:19.352Z,24.40
2018-07-09T13:02:00.164Z,24.20
2018-07-09T13:04:40.821Z,24.30
2018-07-09T13:07:09.740Z,24.50
2018-07-09T13:09:38.054Z,24.50
2018-07-09T13:12:33.694Z,25.00
2018-07-09T13:15:14.041Z,25.30
2018-07-09T13:17:42.640Z,25.30
2018-07-09T13:20:11.375Z,25.00
2018-07-09T13:22:52.681Z,25.00
2018-07-09T13:25:20.982Z,24.50
2018-07-09T13:27:49.443Z,24.30
2018-07-09T13:30:17.732Z,24.50
2018-07-09T13:32:45.952Z,24.70
2018-07-09T13:35:14.242Z,25.00
2018-07-09T13:37:55.079Z,25.00
2018-07-09T13:40:35.870Z,25.10
2018-07-09T13:43:17.384Z,25.00
2018-07-09T13:45:58.008Z,24.40
2018-07-09T13:48:38.646Z,24.30
2018-07-09T13:51:19.278Z,24.40
2018-07-09T13:53:47.838Z,24.50
2018-07-09T13:56:28.693Z,24.40
2018-07-09T13:59:09.285Z,24.30
2018-07-09T14:01:49.993Z,24.50
2018-07-09T14:04:30.290Z,24.60
2018-07-09T14:07:11.062Z,24.70
2018-07-09T14:09:39.703Z,24.40
2018-07-09T14:12:20.265Z,24.80
2018-07-09T14:14:48.528Z,25.00
2018-07-09T14:17:28.648Z,25.20
2018-07-09T14:20:20.958Z,24.80
2018-07-09T14:22:49.378Z,24.90
2018-07-09T14:25:18.208Z,24.80
2018-07-09T14:27:46.649Z,24.60
2018-07-09T14:30:14.971Z,24.60
2018-07-09T14:32:43.687Z,24.70
2018-07-09T14:35:12.163Z,24.80
2018-07-09T14:37:46.561Z,24.90
2018-07-09T14:40:14.900Z,24.70
2018-07-09T14:42:43.259Z,24.70
2018-07-09T14:45:12.742Z,24.60
2018-07-09T14:47:41.015Z,24.50
2018-07-09T14:50:15.744Z,24.40
2018-07-09T14:52:44.066Z,24.10
2018-07-09T14:55:24.391Z,24.30
2018-07-09T14:57:52.834Z,24.50
2018-07-09T15:00:21.126Z,24.70
2018-07-09T15:02:49.375Z,24.80
2018-07-09T15:05:29.685Z,25.00
2018-07-09T15:07:59.178Z,25.40
2018-07-09T15:10:40.213Z,26.00
2018-07-09T15:13:10.484Z,26.30
2018-07-09T15:15:38.975Z,26.60
2018-07-09T15:18:19.674Z,26.50
2018-07-09T15:20:48.033Z,26.20
2018-07-09T15:23:28.192Z,26.30
2018-07-09T15:25:56.451Z,25.80
2018-07-09T15:28:36.577Z,26.10
2018-07-09T15:31:17.239Z,26.20
2018-07-09T15:33:48.644Z,26.10
2018-07-09T15:36:29.535Z,26.20
2018-07-09T15:38:59.927Z,26.30
2018-07-09T15:41:28.338Z,26.30
2018-07-09T15:44:09.017Z,25.90
2018-07-09T15:46:49.480Z,25.50
2018-07-09T15:49:29.987Z,25.50
2018-07-09T15:52:10.572Z,25.70
2018-07-09T15:54:40.382Z,25.60
2018-07-09T15:57:10.176Z,25.60
2018-07-09T15:59:38.446Z,25.90
2018-07-09T16:02:06.791Z,25.90
2018-07-09T16:04:34.984Z,26.00
2018-07-09T16:07:04.134Z,26.10
2018-07-09T16:09:33.230Z,26.10
2018-07-09T16:12:01.512Z,26.10
2018-07-09T16:14:29.700Z,26.10
2018-07-09T16:17:10.734Z,25.90
2018-07-09T16:19:51.689Z,25.90
2018-07-09T16:22:19.917Z,25.80
2018-07-09T16:24:48.269Z,25.80
2018-07-09T16:27:17.453Z,25.40
2018-07-09T16:29:57.601Z,25.50
2018-07-09T16:32:25.855Z,25.50
2018-07-09T16:35:06.095Z,25.60
2018-07-09T16:37:46.690Z,25.60
2018-07-09T16:40:20.978Z,25.50
2018-07-09T16:43:01.109Z,25.30
2018-07-09T16:45:41.732Z,25.20
2018-07-09T16:48:10.013Z,25.20
2018-07-09T16:50:51.101Z,25.30
2018-07-09T16:53:31.945Z,25.30
2018-07-09T16:56:00.707Z,25.50
2018-07-09T16:58:41.504Z,25.60
2018-07-09T17:01:22.215Z,25.50
2018-07-09T17:03:51.605Z,25.50
2018-07-09T17:06:32.554Z,25.70
2018-07-09T17:09:13.340Z,25.70
2018-07-09T17:11:54.015Z,25.70
2018-07-09T17:14:34.655Z,25.70
2018-07-09T17:17:15.907Z,25.50
2018-07-09T17:19:45.649Z,25.30
2018-07-09T17:22:26.820Z,25.20
2018-07-09T17:25:07.423Z,25.30
2018-07-09T17:27:48.171Z,25.20
2018-07-09T17:30:28.909Z,25.10
2018-07-09T17:33:09.582Z,25.10
2018-07-09T17:35:50.133Z,25.00
2018-07-09T17:38:18.417Z,24.90
2018-07-09T17:40:59.442Z,24.90
2018-07-09T17:43:40.214Z,24.90
2018-07-09T17:46:08.474Z,24.80
2018-07-09T17:48:48.862Z,24.70
2018-07-09T17:51:29.411Z,24.70
2018-07-09T17:54:10.131Z,24.60
2018-07-09T17:56:50.928Z,24.60
2018-07-09T17:59:31.153Z,24.50
2018-07-09T18:02:01.500Z,24.50
2018-07-09T18:04:41.842Z,24.40
2018-07-09T18:07:10.330Z,24.30
2018-07-09T18:09:38.735Z,24.20
2018-07-09T18:12:19.407Z,24.10
2018-07-09T18:15:00.096Z,24.00
2018-07-09T18:17:29.906Z,23.90
2018-07-09T18:19:59.151Z,23.80
2018-07-09T18:22:39.292Z,23.90
2018-07-09T18:25:20.050Z,23.60
2018-07-09T18:28:00.663Z,23.60
2018-07-09T18:30:28.948Z,23.60
2018-07-09T18:33:09.259Z,23.50
2018-07-09T18:35:49.897Z,23.00
2018-07-09T18:38:18.261Z,22.90
2018-07-09T18:40:46.574Z,22.70
2018-07-09T18:43:14.905Z,22.50
2018-07-09T18:45:55.529Z,22.30
2018-07-09T18:48:36.387Z,22.20
2018-07-09T18:51:16.814Z,22.30
2018-07-09T18:53:57.457Z,22.00
2018-07-09T18:56:38.001Z,22.20
2018-07-09T18:59:18.820Z,22.20
2018-07-09T19:01:59.489Z,22.10
2018-07-09T19:04:40.114Z,22.00
2018-07-09T19:07:21.459Z,22.00
2018-07-09T19:10:02.433Z,21.80
2018-07-09T19:12:43.152Z,21.80
2018-07-09T19:15:23.936Z,21.80
2018-07-09T19:18:04.835Z,21.70
2018-07-09T19:20:45.455Z,21.80
2018-07-09T19:23:12.729Z,21.80
2018-07-09T19:25:53.918Z,21.90
2018-07-09T19:28:34.509Z,21.80
2018-07-09T19:31:15.318Z,21.80
2018-07-09T19:33:56.151Z,21.80
2018-07-09T19:36:39.105Z,21.90
2018-07-09T19:39:20.267Z,21.80
2018-07-09T19:41:47.710Z,21.80
2018-07-09T19:44:28.832Z,21.70
2018-07-09T19:46:56.105Z,21.70
2018-07-09T19:49:23.500Z,21.60
2018-07-09T19:52:04.628Z,21.60
2018-07-09T19:54:45.229Z,21.60
2018-07-09T19:57:25.778Z,21.60
2018-07-09T20:00:06.539Z,21.70
2018-07-09T20:02:47.159Z,21.70
2018-07-09T20:05:35.202Z,21.70
2018-07-09T20:08:16.363Z,21.60
2018-07-09T20:10:48.922Z,21.40
2018-07-09T20:14:32.099Z,21.30
2018-07-09T20:17:16.073Z,21.20
2018-07-09T20:19:57.037Z,21.10
2018-07-09T20:22:37.655Z,20.90
2018-07-09T20:25:18.635Z,20.80
2018-07-09T20:27:58.926Z,20.80
2018-07-09T20:30:39.540Z,20.80
2018-07-09T20:33:20.565Z,20.70
2018-07-09T20:35:54.367Z,20.60
2018-07-09T20:38:34.645Z,20.60
2018-07-09T20:41:06.734Z,20.60
2018-07-09T20:43:34.898Z,20.50
2018-07-09T20:46:03.473Z,20.50
2018-07-09T20:48:30.807Z,20.40
2018-07-09T20:51:11.962Z,20.30
2018-07-09T20:53:39.276Z,20.20
2018-07-09T20:56:06.654Z,19.70
2018-07-09T20:58:40.931Z,19.80
2018-07-09T21:01:08.517Z,19.80
2018-07-09T21:03:53.596Z,19.70
2018-07-09T21:06:21.181Z,19.80
2018-07-09T21:08:51.914Z,19.80
2018-07-09T21:11:19.714Z,19.80
2018-07-09T21:14:00.371Z,19.70
2018-07-09T21:16:29.235Z,19.70
2018-07-09T21:19:10.661Z,19.70
2018-07-09T21:21:51.850Z,19.30
2018-07-09T21:24:32.215Z,19.40
2018-07-09T21:27:03.870Z,19.40
2018-07-09T21:29:44.927Z,19.40
2018-07-09T21:32:25.105Z,19.40
2018-07-09T21:35:07.067Z,19.40
2018-07-09T21:37:34.434Z,19.40
2018-07-09T21:40:15.518Z,19.40
2018-07-09T21:42:42.995Z,19.40
2018-07-09T21:46:52.918Z,19.40
2018-07-09T21:49:33.692Z,19.30
2018-07-09T21:52:14.761Z,19.30
2018-07-09T21:54:55.403Z,19.40
2018-07-09T21:57:23.343Z,19.40
2018-07-09T21:59:50.661Z,19.50
2018-07-09T22:02:31.278Z,19.50
2018-07-09T22:05:04.793Z,19.50
2018-07-09T22:07:46.391Z,19.50
2018-07-09T22:10:27.196Z,19.60
2018-07-09T22:13:07.676Z,19.60
2018-07-09T22:15:48.306Z,19.60
2018-07-09T22:18:21.032Z,19.30
2018-07-09T22:21:01.755Z,19.10
2018-07-09T22:23:29.038Z,19.20
2018-07-09T22:26:03.170Z,19.20
2018-07-09T22:28:43.787Z,19.20
2018-07-09T22:31:13.624Z,19.30
2018-07-09T22:33:41.853Z,19.40
2018-07-09T22:36:22.162Z,19.30
2018-07-09T22:39:02.751Z,19.50
2018-07-09T22:41:43.357Z,19.50
2018-07-09T22:44:23.948Z,19.60
2018-07-09T22:47:04.512Z,19.50
2018-07-09T22:49:32.738Z,19.40
2018-07-09T22:52:00.905Z,19.20
2018-07-09T22:54:29.182Z,19.10
2018-07-09T22:56:57.377Z,19.20
2018-07-09T22:59:37.876Z,19.30
2018-07-09T23:02:06.330Z,19.40
2018-07-09T23:04:46.923Z,19.30
2018-07-09T23:07:15.148Z,19.20
2018-07-09T23:10:05.564Z,19.30
2018-07-09T23:13:21.651Z,19.30
2018-07-09T23:16:01.858Z,19.20
2018-07-09T23:18:42.577Z,19.10
2018-07-09T23:21:35.292Z,19.00
2018-07-09T23:24:02.793Z,18.90
2018-07-09T23:26:30.066Z,18.70
2018-07-09T23:29:04.573Z,18.70
2018-07-09T23:31:31.836Z,18.80
2018-07-09T23:34:12.757Z,19.00
2018-07-09T23:36:53.324Z,18.90
2018-07-09T23:39:34.111Z,18.70
2018-07-09T23:42:14.717Z,18.70
2018-07-09T23:44:41.976Z,18.60
2018-07-09T23:47:22.274Z,18.70
2018-07-09T23:49:49.546Z,18.70
2018-07-09T23:52:30.440Z,18.70
2018-07-09T23:55:11.155Z,18.80
2018-07-09T23:58:02.985Z,18.90
